sensor_id;sensor_type;location;lat;lon;timestamp;P1;durP1;ratioP1;P2;durP2;ratioP2
5491;SDS011;2768;53.540;10.224;2023-08-06T00:03:45;2.67;;;2.37;;
5491;SDS011;2768;53.540;10.224;2023-08-06T00:09:38;2.20;;;2.00;;
5491;SDS011;2768;53.540;10.224;2023-08-06T00:15:32;3.57;;;2.10;;
5491;SDS011;2768;53.540;10.224;2023-08-06T00:21:25;3.00;;;2.60;;
5491;SDS011;2768;53.540;10.224;2023-08-06T00:27:19;4.60;;;2.87;;
5491;SDS011;2768;53.540;10.224;2023-08-06T00:33:13;2.87;;;2.67;;
5491;SDS011;2768;53.540;10.224;2023-08-06T00:39:06;4.07;;;3.67;;
5491;SDS011;2768;53.540;10.224;2023-08-06T00:44:59;3.30;;;3.00;;
5491;SDS011;2768;53.540;10.224;2023-08-06T00:50:54;3.63;;;3.33;;
5491;SDS011;2768;53.540;10.224;2023-08-06T00:56:48;3.93;;;3.47;;
5491;SDS011;2768;53.540;10.224;2023-08-06T01:02:42;3.77;;;3.00;;
5491;SDS011;2768;53.540;10.224;2023-08-06T01:08:39;5.63;;;3.30;;
5491;SDS011;2768;53.540;10.224;2023-08-06T01:14:42;4.17;;;3.87;;
5491;SDS011;2768;53.540;10.224;2023-08-06T01:20:41;3.70;;;3.40;;
5491;SDS011;2768;53.540;10.224;2023-08-06T01:26:35;4.10;;;3.77;;
5491;SDS011;2768;53.540;10.224;2023-08-06T01:32:34;3.70;;;3.40;;
5491;SDS011;2768;53.540;10.224;2023-08-06T01:38:32;5.50;;;4.23;;
5491;SDS011;2768;53.540;10.224;2023-08-06T01:44:26;4.83;;;4.40;;
5491;SDS011;2768;53.540;10.224;2023-08-06T01:50:19;4.63;;;4.03;;
5491;SDS011;2768;53.540;10.224;2023-08-06T01:56:14;4.30;;;3.80;;
5491;SDS011;2768;53.540;10.224;2023-08-06T02:02:07;4.20;;;3.70;;
5491;SDS011;2768;53.540;10.224;2023-08-06T02:08:01;4.97;;;4.50;;
5491;SDS011;2768;53.540;10.224;2023-08-06T02:13:55;6.00;;;3.50;;
5491;SDS011;2768;53.540;10.224;2023-08-06T02:19:49;3.90;;;3.60;;
5491;SDS011;2768;53.540;10.224;2023-08-06T02:25:42;5.13;;;4.07;;
5491;SDS011;2768;53.540;10.224;2023-08-06T02:31:37;5.60;;;4.00;;
5491;SDS011;2768;53.540;10.224;2023-08-06T02:37:32;4.70;;;3.20;;
5491;SDS011;2768;53.540;10.224;2023-08-06T02:43:25;4.10;;;3.73;;
5491;SDS011;2768;53.540;10.224;2023-08-06T02:49:20;5.60;;;4.23;;
5491;SDS011;2768;53.540;10.224;2023-08-06T02:55:14;4.03;;;3.73;;
5491;SDS011;2768;53.540;10.224;2023-08-06T03:01:10;4.37;;;3.90;;
5491;SDS011;2768;53.540;10.224;2023-08-06T03:07:11;5.60;;;4.40;;
5491;SDS011;2768;53.540;10.224;2023-08-06T03:13:13;4.37;;;3.60;;
5491;SDS011;2768;53.540;10.224;2023-08-06T03:19:06;4.40;;;4.00;;
5491;SDS011;2768;53.540;10.224;2023-08-06T03:25:01;4.40;;;3.93;;
5491;SDS011;2768;53.540;10.224;2023-08-06T03:31:01;4.03;;;3.63;;
5491;SDS011;2768;53.540;10.224;2023-08-06T03:37:02;4.30;;;3.70;;
5491;SDS011;2768;53.540;10.224;2023-08-06T03:42:59;5.43;;;3.67;;
5491;SDS011;2768;53.540;10.224;2023-08-06T03:48:52;5.33;;;3.03;;
5491;SDS011;2768;53.540;10.224;2023-08-06T03:54:45;4.77;;;3.60;;
5491;SDS011;2768;53.540;10.224;2023-08-06T04:00:40;6.47;;;3.83;;
5491;SDS011;2768;53.540;10.224;2023-08-06T04:06:34;4.40;;;3.80;;
5491;SDS011;2768;53.540;10.224;2023-08-06T04:12:27;4.47;;;3.70;;
5491;SDS011;2768;53.540;10.224;2023-08-06T04:18:22;4.20;;;3.83;;
5491;SDS011;2768;53.540;10.224;2023-08-06T04:24:17;5.20;;;4.10;;
5491;SDS011;2768;53.540;10.224;2023-08-06T04:30:10;5.20;;;3.87;;
5491;SDS011;2768;53.540;10.224;2023-08-06T04:36:07;4.47;;;4.07;;
5491;SDS011;2768;53.540;10.224;2023-08-06T04:42:01;7.07;;;3.97;;
5491;SDS011;2768;53.540;10.224;2023-08-06T04:47:55;4.23;;;3.90;;
5491;SDS011;2768;53.540;10.224;2023-08-06T04:53:50;4.60;;;4.20;;
5491;SDS011;2768;53.540;10.224;2023-08-06T04:59:43;4.57;;;4.13;;
5491;SDS011;2768;53.540;10.224;2023-08-06T05:05:36;6.60;;;4.07;;
5491;SDS011;2768;53.540;10.224;2023-08-06T05:11:33;5.00;;;4.50;;
5491;SDS011;2768;53.540;10.224;2023-08-06T05:17:26;6.97;;;4.60;;
5491;SDS011;2768;53.540;10.224;2023-08-06T05:23:20;5.80;;;4.90;;
5491;SDS011;2768;53.540;10.224;2023-08-06T05:29:15;7.27;;;4.83;;
5491;SDS011;2768;53.540;10.224;2023-08-06T05:35:09;7.83;;;4.83;;
5491;SDS011;2768;53.540;10.224;2023-08-06T05:41:02;6.17;;;4.57;;
5491;SDS011;2768;53.540;10.224;2023-08-06T05:46:56;5.20;;;4.70;;
5491;SDS011;2768;53.540;10.224;2023-08-06T05:52:49;6.27;;;4.90;;
5491;SDS011;2768;53.540;10.224;2023-08-06T05:58:43;6.87;;;5.00;;
5491;SDS011;2768;53.540;10.224;2023-08-06T06:04:40;5.03;;;4.40;;
5491;SDS011;2768;53.540;10.224;2023-08-06T06:10:33;6.87;;;5.03;;
5491;SDS011;2768;53.540;10.224;2023-08-06T06:16:27;5.80;;;5.30;;
5491;SDS011;2768;53.540;10.224;2023-08-06T06:22:22;5.43;;;4.87;;
5491;SDS011;2768;53.540;10.224;2023-08-06T06:28:15;7.90;;;6.07;;
5491;SDS011;2768;53.540;10.224;2023-08-06T06:34:08;7.10;;;5.30;;
5491;SDS011;2768;53.540;10.224;2023-08-06T06:40:03;8.60;;;4.60;;
5491;SDS011;2768;53.540;10.224;2023-08-06T06:45:57;5.57;;;5.07;;
5491;SDS011;2768;53.540;10.224;2023-08-06T06:51:51;6.03;;;4.80;;
5491;SDS011;2768;53.540;10.224;2023-08-06T06:57:46;6.87;;;5.37;;
5491;SDS011;2768;53.540;10.224;2023-08-06T07:03:39;6.80;;;5.37;;
5491;SDS011;2768;53.540;10.224;2023-08-06T07:09:32;8.13;;;5.20;;
5491;SDS011;2768;53.540;10.224;2023-08-06T07:15:26;7.63;;;5.10;;
5491;SDS011;2768;53.540;10.224;2023-08-06T07:21:20;8.67;;;7.63;;
5491;SDS011;2768;53.540;10.224;2023-08-06T07:27:13;6.63;;;6.00;;
5491;SDS011;2768;53.540;10.224;2023-08-06T07:33:08;8.63;;;5.43;;
5491;SDS011;2768;53.540;10.224;2023-08-06T07:39:01;7.07;;;6.37;;
5491;SDS011;2768;53.540;10.224;2023-08-06T07:44:58;10.00;;;6.07;;
5491;SDS011;2768;53.540;10.224;2023-08-06T07:50:53;10.87;;;5.73;;
5491;SDS011;2768;53.540;10.224;2023-08-06T07:56:47;6.10;;;5.50;;
5491;SDS011;2768;53.540;10.224;2023-08-06T08:02:40;7.67;;;6.23;;
5491;SDS011;2768;53.540;10.224;2023-08-06T08:08:35;13.17;;;6.50;;
5491;SDS011;2768;53.540;10.224;2023-08-06T08:14:30;6.80;;;6.13;;
5491;SDS011;2768;53.540;10.224;2023-08-06T08:20:27;9.20;;;5.90;;
5491;SDS011;2768;53.540;10.224;2023-08-06T08:26:25;18.90;;;6.03;;
5491;SDS011;2768;53.540;10.224;2023-08-06T08:32:19;6.57;;;5.87;;
5491;SDS011;2768;53.540;10.224;2023-08-06T08:38:12;7.33;;;5.90;;
5491;SDS011;2768;53.540;10.224;2023-08-06T08:44:08;7.10;;;6.23;;
5491;SDS011;2768;53.540;10.224;2023-08-06T08:50:03;10.33;;;7.80;;
5491;SDS011;2768;53.540;10.224;2023-08-06T08:55:58;10.50;;;6.77;;
5491;SDS011;2768;53.540;10.224;2023-08-06T09:01:53;8.20;;;7.40;;
5491;SDS011;2768;53.540;10.224;2023-08-06T09:07:48;9.00;;;7.40;;
5491;SDS011;2768;53.540;10.224;2023-08-06T09:13:44;8.50;;;7.20;;
5491;SDS011;2768;53.540;10.224;2023-08-06T09:19:39;9.90;;;8.07;;
5491;SDS011;2768;53.540;10.224;2023-08-06T09:25:37;8.50;;;7.57;;
5491;SDS011;2768;53.540;10.224;2023-08-06T09:31:32;8.90;;;7.10;;
5491;SDS011;2768;53.540;10.224;2023-08-06T09:37:29;9.43;;;7.40;;
5491;SDS011;2768;53.540;10.224;2023-08-06T09:43:28;10.33;;;7.50;;
5491;SDS011;2768;53.540;10.224;2023-08-06T09:49:26;7.37;;;6.60;;
5491;SDS011;2768;53.540;10.224;2023-08-06T09:55:21;9.50;;;7.07;;
5491;SDS011;2768;53.540;10.224;2023-08-06T10:01:16;8.00;;;7.20;;
5491;SDS011;2768;53.540;10.224;2023-08-06T10:07:11;8.37;;;6.63;;
5491;SDS011;2768;53.540;10.224;2023-08-06T10:13:06;7.53;;;6.93;;
5491;SDS011;2768;53.540;10.224;2023-08-06T10:19:00;5.80;;;5.20;;
5491;SDS011;2768;53.540;10.224;2023-08-06T10:24:56;5.90;;;5.40;;
5491;SDS011;2768;53.540;10.224;2023-08-06T10:30:54;6.50;;;5.87;;
5491;SDS011;2768;53.540;10.224;2023-08-06T10:36:47;5.80;;;5.37;;
5491;SDS011;2768;53.540;10.224;2023-08-06T10:42:41;6.77;;;6.10;;
5491;SDS011;2768;53.540;10.224;2023-08-06T10:48:36;7.00;;;6.07;;
5491;SDS011;2768;53.540;10.224;2023-08-06T10:54:30;6.30;;;5.70;;
5491;SDS011;2768;53.540;10.224;2023-08-06T11:00:23;6.80;;;6.20;;
5491;SDS011;2768;53.540;10.224;2023-08-06T11:06:18;7.70;;;7.00;;
5491;SDS011;2768;53.540;10.224;2023-08-06T11:12:12;8.00;;;7.20;;
5491;SDS011;2768;53.540;10.224;2023-08-06T11:18:11;8.93;;;8.03;;
5491;SDS011;2768;53.540;10.224;2023-08-06T11:24:05;7.90;;;7.13;;
5491;SDS011;2768;53.540;10.224;2023-08-06T11:29:58;9.40;;;7.57;;
5491;SDS011;2768;53.540;10.224;2023-08-06T11:35:52;9.60;;;8.27;;
5491;SDS011;2768;53.540;10.224;2023-08-06T11:41:48;8.30;;;7.47;;
5491;SDS011;2768;53.540;10.224;2023-08-06T11:47:42;8.10;;;7.33;;
5491;SDS011;2768;53.540;10.224;2023-08-06T11:53:46;11.73;;;7.90;;
5491;SDS011;2768;53.540;10.224;2023-08-06T11:59:42;8.40;;;7.60;;
5491;SDS011;2768;53.540;10.224;2023-08-06T12:05:35;9.60;;;8.70;;
5491;SDS011;2768;53.540;10.224;2023-08-06T12:11:30;10.83;;;8.93;;
5491;SDS011;2768;53.540;10.224;2023-08-06T12:17:25;9.00;;;8.13;;
5491;SDS011;2768;53.540;10.224;2023-08-06T12:23:18;9.63;;;8.00;;
5491;SDS011;2768;53.540;10.224;2023-08-06T12:29:11;8.73;;;8.03;;
5491;SDS011;2768;53.540;10.224;2023-08-06T12:35:07;9.50;;;8.20;;
5491;SDS011;2768;53.540;10.224;2023-08-06T12:41:01;8.73;;;7.33;;
5491;SDS011;2768;53.540;10.224;2023-08-06T12:46:55;9.63;;;8.33;;
5491;SDS011;2768;53.540;10.224;2023-08-06T12:52:50;7.63;;;6.83;;
5491;SDS011;2768;53.540;10.224;2023-08-06T12:58:43;8.50;;;7.67;;
5491;SDS011;2768;53.540;10.224;2023-08-06T13:04:36;8.27;;;7.40;;
5491;SDS011;2768;53.540;10.224;2023-08-06T13:10:31;9.30;;;6.80;;
5491;SDS011;2768;53.540;10.224;2023-08-06T13:16:24;9.03;;;7.57;;
5491;SDS011;2768;53.540;10.224;2023-08-06T13:22:18;7.63;;;6.83;;
5491;SDS011;2768;53.540;10.224;2023-08-06T13:28:12;8.80;;;7.27;;
5491;SDS011;2768;53.540;10.224;2023-08-06T13:34:06;8.20;;;7.47;;
5491;SDS011;2768;53.540;10.224;2023-08-06T13:40:00;9.20;;;7.43;;
5491;SDS011;2768;53.540;10.224;2023-08-06T13:45:55;11.07;;;7.67;;
5491;SDS011;2768;53.540;10.224;2023-08-06T13:51:49;7.97;;;7.10;;
5491;SDS011;2768;53.540;10.224;2023-08-06T13:57:42;7.70;;;6.90;;
5491;SDS011;2768;53.540;10.224;2023-08-06T14:03:36;8.20;;;6.50;;
5491;SDS011;2768;53.540;10.224;2023-08-06T14:09:30;7.80;;;6.73;;
5491;SDS011;2768;53.540;10.224;2023-08-06T14:15:23;6.80;;;5.87;;
5491;SDS011;2768;53.540;10.224;2023-08-06T14:21:18;6.00;;;5.40;;
5491;SDS011;2768;53.540;10.224;2023-08-06T14:27:11;6.80;;;3.70;;
5491;SDS011;2768;53.540;10.224;2023-08-06T14:33:04;7.73;;;4.60;;
5491;SDS011;2768;53.540;10.224;2023-08-06T14:39:19;5.37;;;4.63;;
5491;SDS011;2768;53.540;10.224;2023-08-06T14:45:12;5.50;;;4.17;;
5491;SDS011;2768;53.540;10.224;2023-08-06T14:51:06;6.30;;;4.30;;
5491;SDS011;2768;53.540;10.224;2023-08-06T14:57:00;4.70;;;3.57;;
5491;SDS011;2768;53.540;10.224;2023-08-06T15:02:53;3.60;;;3.10;;
5491;SDS011;2768;53.540;10.224;2023-08-06T15:08:47;7.77;;;6.97;;
5491;SDS011;2768;53.540;10.224;2023-08-06T15:14:41;5.13;;;4.50;;
5491;SDS011;2768;53.540;10.224;2023-08-06T15:20:34;12.53;;;5.73;;
5491;SDS011;2768;53.540;10.224;2023-08-06T15:26:28;7.23;;;5.27;;
5491;SDS011;2768;53.540;10.224;2023-08-06T15:32:22;5.67;;;4.40;;
5491;SDS011;2768;53.540;10.224;2023-08-06T15:38:16;5.33;;;4.17;;
5491;SDS011;2768;53.540;10.224;2023-08-06T15:44:09;9.50;;;7.30;;
5491;SDS011;2768;53.540;10.224;2023-08-06T15:50:04;5.70;;;4.17;;
5491;SDS011;2768;53.540;10.224;2023-08-06T15:55:59;4.63;;;3.43;;
5491;SDS011;2768;53.540;10.224;2023-08-06T16:01:53;5.77;;;3.07;;
5491;SDS011;2768;53.540;10.224;2023-08-06T16:07:50;3.37;;;2.97;;
5491;SDS011;2768;53.540;10.224;2023-08-06T16:13:43;4.90;;;4.20;;
5491;SDS011;2768;53.540;10.224;2023-08-06T16:19:37;4.30;;;3.90;;
5491;SDS011;2768;53.540;10.224;2023-08-06T16:25:31;6.60;;;4.07;;
5491;SDS011;2768;53.540;10.224;2023-08-06T16:31:24;4.80;;;3.30;;
5491;SDS011;2768;53.540;10.224;2023-08-06T16:37:18;4.07;;;3.67;;
5491;SDS011;2768;53.540;10.224;2023-08-06T16:43:12;4.40;;;3.43;;
5491;SDS011;2768;53.540;10.224;2023-08-06T16:49:05;4.53;;;3.40;;
5491;SDS011;2768;53.540;10.224;2023-08-06T16:54:59;5.30;;;3.70;;
5491;SDS011;2768;53.540;10.224;2023-08-06T17:00:54;4.27;;;3.70;;
5491;SDS011;2768;53.540;10.224;2023-08-06T17:06:51;5.63;;;3.37;;
5491;SDS011;2768;53.540;10.224;2023-08-06T17:12:45;3.53;;;3.23;;
5491;SDS011;2768;53.540;10.224;2023-08-06T17:18:41;5.13;;;3.53;;
5491;SDS011;2768;53.540;10.224;2023-08-06T17:24:34;6.13;;;3.97;;
5491;SDS011;2768;53.540;10.224;2023-08-06T17:30:27;9.33;;;3.90;;
5491;SDS011;2768;53.540;10.224;2023-08-06T17:36:22;4.90;;;3.37;;
5491;SDS011;2768;53.540;10.224;2023-08-06T17:42:15;4.63;;;3.83;;
5491;SDS011;2768;53.540;10.224;2023-08-06T17:48:08;3.93;;;3.63;;
5491;SDS011;2768;53.540;10.224;2023-08-06T17:54:03;5.17;;;3.90;;
5491;SDS011;2768;53.540;10.224;2023-08-06T17:59:56;3.57;;;3.27;;
5491;SDS011;2768;53.540;10.224;2023-08-06T18:05:53;5.23;;;3.43;;
5491;SDS011;2768;53.540;10.224;2023-08-06T18:11:48;3.97;;;3.43;;
5491;SDS011;2768;53.540;10.224;2023-08-06T18:17:41;3.10;;;2.90;;
5491;SDS011;2768;53.540;10.224;2023-08-06T18:23:36;4.50;;;3.30;;
5491;SDS011;2768;53.540;10.224;2023-08-06T18:29:31;3.53;;;3.07;;
5491;SDS011;2768;53.540;10.224;2023-08-06T18:35:25;7.13;;;3.43;;
5491;SDS011;2768;53.540;10.224;2023-08-06T18:41:18;6.80;;;3.50;;
5491;SDS011;2768;53.540;10.224;2023-08-06T18:47:12;6.83;;;3.67;;
5491;SDS011;2768;53.540;10.224;2023-08-06T18:53:06;3.60;;;3.30;;
5491;SDS011;2768;53.540;10.224;2023-08-06T18:58:59;4.20;;;3.33;;
5491;SDS011;2768;53.540;10.224;2023-08-06T19:04:54;4.63;;;3.43;;
5491;SDS011;2768;53.540;10.224;2023-08-06T19:10:48;4.83;;;3.00;;
5491;SDS011;2768;53.540;10.224;2023-08-06T19:16:42;4.70;;;3.43;;
5491;SDS011;2768;53.540;10.224;2023-08-06T19:22:38;3.97;;;3.10;;
5491;SDS011;2768;53.540;10.224;2023-08-06T19:28:32;6.47;;;4.47;;
5491;SDS011;2768;53.540;10.224;2023-08-06T19:34:25;7.13;;;3.83;;
5491;SDS011;2768;53.540;10.224;2023-08-06T19:40:21;3.23;;;2.67;;
5491;SDS011;2768;53.540;10.224;2023-08-06T19:46:14;3.93;;;3.30;;
5491;SDS011;2768;53.540;10.224;2023-08-06T19:52:08;5.00;;;3.53;;
5491;SDS011;2768;53.540;10.224;2023-08-06T19:58:02;3.70;;;3.40;;
5491;SDS011;2768;53.540;10.224;2023-08-06T20:03:55;4.00;;;3.53;;
5491;SDS011;2768;53.540;10.224;2023-08-06T20:09:48;5.53;;;3.53;;
5491;SDS011;2768;53.540;10.224;2023-08-06T20:15:44;4.70;;;3.20;;
5491;SDS011;2768;53.540;10.224;2023-08-06T20:21:41;7.03;;;3.93;;
5491;SDS011;2768;53.540;10.224;2023-08-06T20:27:34;4.40;;;3.60;;
5491;SDS011;2768;53.540;10.224;2023-08-06T20:33:29;4.03;;;3.17;;
5491;SDS011;2768;53.540;10.224;2023-08-06T20:39:22;4.77;;;3.60;;
5491;SDS011;2768;53.540;10.224;2023-08-06T20:45:15;5.53;;;3.30;;
5491;SDS011;2768;53.540;10.224;2023-08-06T20:51:10;4.60;;;3.23;;
5491;SDS011;2768;53.540;10.224;2023-08-06T20:57:03;4.57;;;3.57;;
5491;SDS011;2768;53.540;10.224;2023-08-06T21:02:57;5.20;;;3.57;;
5491;SDS011;2768;53.540;10.224;2023-08-06T21:08:52;6.73;;;4.00;;
5491;SDS011;2768;53.540;10.224;2023-08-06T21:14:45;7.83;;;3.70;;
5491;SDS011;2768;53.540;10.224;2023-08-06T21:20:38;7.03;;;3.50;;
5491;SDS011;2768;53.540;10.224;2023-08-06T21:26:33;3.77;;;3.37;;
5491;SDS011;2768;53.540;10.224;2023-08-06T21:32:26;5.77;;;4.27;;
5491;SDS011;2768;53.540;10.224;2023-08-06T21:38:20;6.50;;;4.27;;
5491;SDS011;2768;53.540;10.224;2023-08-06T21:44:14;5.00;;;3.30;;
5491;SDS011;2768;53.540;10.224;2023-08-06T21:50:08;3.70;;;3.40;;
5491;SDS011;2768;53.540;10.224;2023-08-06T21:56:02;3.90;;;3.60;;
5491;SDS011;2768;53.540;10.224;2023-08-06T22:01:58;6.13;;;3.27;;
5491;SDS011;2768;53.540;10.224;2023-08-06T22:07:52;4.20;;;3.40;;
5491;SDS011;2768;53.540;10.224;2023-08-06T22:13:45;4.50;;;3.20;;
5491;SDS011;2768;53.540;10.224;2023-08-06T22:19:40;3.40;;;3.07;;
5491;SDS011;2768;53.540;10.224;2023-08-06T22:25:33;7.20;;;3.30;;
5491;SDS011;2768;53.540;10.224;2023-08-06T22:31:26;5.93;;;3.33;;
5491;SDS011;2768;53.540;10.224;2023-08-06T22:37:21;4.70;;;3.27;;
5491;SDS011;2768;53.540;10.224;2023-08-06T22:43:14;4.80;;;2.60;;
5491;SDS011;2768;53.540;10.224;2023-08-06T22:49:07;3.70;;;2.80;;
5491;SDS011;2768;53.540;10.224;2023-08-06T22:55:03;3.50;;;3.00;;
5491;SDS011;2768;53.540;10.224;2023-08-06T23:01:14;4.83;;;2.93;;
5491;SDS011;2768;53.540;10.224;2023-08-06T23:07:07;6.13;;;2.60;;
5491;SDS011;2768;53.540;10.224;2023-08-06T23:13:03;8.70;;;3.30;;
5491;SDS011;2768;53.540;10.224;2023-08-06T23:18:58;4.20;;;2.70;;
5491;SDS011;2768;53.540;10.224;2023-08-06T23:24:51;4.37;;;3.00;;
5491;SDS011;2768;53.540;10.224;2023-08-06T23:30:45;6.07;;;3.20;;
5491;SDS011;2768;53.540;10.224;2023-08-06T23:36:42;5.00;;;3.07;;
5491;SDS011;2768;53.540;10.224;2023-08-06T23:42:35;4.00;;;3.03;;
5491;SDS011;2768;53.540;10.224;2023-08-06T23:48:30;4.73;;;2.80;;
5491;SDS011;2768;53.540;10.224;2023-08-06T23:54:23;5.10;;;2.80;;
